sensor_id;sensor_type;location;lat;lon;timestamp;P1;durP1;ratioP1;P2;durP2;ratioP2
51296;SDS011;37380;45.186;9.792;2023-09-12T00:00:09;84.28;;;72.05;;
51296;SDS011;37380;45.186;9.792;2023-09-12T00:02:38;79.82;;;70.57;;
51296;SDS011;37380;45.186;9.792;2023-09-12T00:05:05;87.75;;;74.15;;
51296;SDS011;37380;45.186;9.792;2023-09-12T00:07:34;98.82;;;78.38;;
51296;SDS011;37380;45.186;9.792;2023-09-12T00:10:02;81.85;;;73.20;;
51296;SDS011;37380;45.186;9.792;2023-09-12T00:12:36;85.97;;;76.75;;
51296;SDS011;37380;45.186;9.792;2023-09-12T00:15:30;89.40;;;76.40;;
51296;SDS011;37380;45.186;9.792;2023-09-12T00:17:57;92.38;;;82.75;;
51296;SDS011;37380;45.186;9.792;2023-09-12T00:20:24;102.70;;;86.13;;
51296;SDS011;37380;45.186;9.792;2023-09-12T00:22:51;96.30;;;82.85;;
51296;SDS011;37380;45.186;9.792;2023-09-12T00:25:21;98.72;;;86.05;;
51296;SDS011;37380;45.186;9.792;2023-09-12T00:27:48;93.10;;;83.40;;
51296;SDS011;37380;45.186;9.792;2023-09-12T00:30:15;98.40;;;87.65;;
51296;SDS011;37380;45.186;9.792;2023-09-12T00:32:49;93.70;;;83.93;;
51296;SDS011;37380;45.186;9.792;2023-09-12T00:35:50;103.63;;;86.15;;
51296;SDS011;37380;45.186;9.792;2023-09-12T00:38:44;99.05;;;88.63;;
51296;SDS011;37380;45.186;9.792;2023-09-12T00:41:11;107.75;;;87.90;;
51296;SDS011;37380;45.186;9.792;2023-09-12T00:43:38;107.28;;;90.55;;
51296;SDS011;37380;45.186;9.792;2023-09-12T00:46:05;99.45;;;89.15;;
51296;SDS011;37380;45.186;9.792;2023-09-12T00:48:32;112.85;;;93.10;;
51296;SDS011;37380;45.186;9.792;2023-09-12T00:50:59;103.82;;;91.32;;
51296;SDS011;37380;45.186;9.792;2023-09-12T00:53:27;94.10;;;84.45;;
51296;SDS011;37380;45.186;9.792;2023-09-12T00:55:55;102.75;;;84.85;;
51296;SDS011;37380;45.186;9.792;2023-09-12T00:58:25;94.40;;;84.78;;
51296;SDS011;37380;45.186;9.792;2023-09-12T01:00:54;92.68;;;82.32;;
51296;SDS011;37380;45.186;9.792;2023-09-12T01:03:22;96.63;;;86.70;;
51296;SDS011;37380;45.186;9.792;2023-09-12T01:05:50;96.20;;;85.07;;
51296;SDS011;37380;45.186;9.792;2023-09-12T01:08:18;93.32;;;83.75;;
51296;SDS011;37380;45.186;9.792;2023-09-12T01:10:52;101.68;;;85.97;;
51296;SDS011;37380;45.186;9.792;2023-09-12T01:13:55;96.40;;;86.40;;
51296;SDS011;37380;45.186;9.792;2023-09-12T01:16:49;101.20;;;90.53;;
51296;SDS011;37380;45.186;9.792;2023-09-12T01:19:16;99.82;;;89.13;;
51296;SDS011;37380;45.186;9.792;2023-09-12T01:24:41;105.70;;;90.68;;
51296;SDS011;37380;45.186;9.792;2023-09-12T01:27:33;96.13;;;86.43;;
51296;SDS011;37380;45.186;9.792;2023-09-12T01:30:02;100.15;;;84.63;;
51296;SDS011;37380;45.186;9.792;2023-09-12T01:32:32;91.38;;;82.00;;
51296;SDS011;37380;45.186;9.792;2023-09-12T01:35:34;91.70;;;82.13;;
51296;SDS011;37380;45.186;9.792;2023-09-12T01:38:28;90.30;;;80.88;;
51296;SDS011;37380;45.186;9.792;2023-09-12T01:40:56;91.95;;;82.22;;
51296;SDS011;37380;45.186;9.792;2023-09-12T01:43:24;98.88;;;88.22;;
51296;SDS011;37380;45.186;9.792;2023-09-12T01:45:54;103.32;;;89.70;;
51296;SDS011;37380;45.186;9.792;2023-09-12T01:48:26;105.40;;;94.57;;
51296;SDS011;37380;45.186;9.792;2023-09-12T01:51:00;104.93;;;94.75;;
51296;SDS011;37380;45.186;9.792;2023-09-12T01:53:28;101.93;;;91.10;;
51296;SDS011;37380;45.186;9.792;2023-09-12T01:55:57;108.32;;;95.47;;
51296;SDS011;37380;45.186;9.792;2023-09-12T01:58:25;106.07;;;95.50;;
51296;SDS011;37380;45.186;9.792;2023-09-12T02:00:52;107.90;;;96.30;;
51296;SDS011;37380;45.186;9.792;2023-09-12T02:03:21;114.63;;;102.93;;
51296;SDS011;37380;45.186;9.792;2023-09-12T02:05:48;112.95;;;100.57;;
51296;SDS011;37380;45.186;9.792;2023-09-12T02:08:15;110.70;;;97.65;;
51296;SDS011;37380;45.186;9.792;2023-09-12T02:10:49;113.72;;;101.43;;
51296;SDS011;37380;45.186;9.792;2023-09-12T02:13:50;108.25;;;95.72;;
51296;SDS011;37380;45.186;9.792;2023-09-12T02:16:44;120.15;;;107.50;;
51296;SDS011;37380;45.186;9.792;2023-09-12T02:19:12;109.13;;;97.40;;
51296;SDS011;37380;45.186;9.792;2023-09-12T02:21:39;111.75;;;98.65;;
51296;SDS011;37380;45.186;9.792;2023-09-12T02:24:06;106.93;;;95.20;;
51296;SDS011;37380;45.186;9.792;2023-09-12T02:26:33;115.68;;;103.22;;
51296;SDS011;37380;45.186;9.792;2023-09-12T02:29:03;127.53;;;112.55;;
51296;SDS011;37380;45.186;9.792;2023-09-12T02:31:32;125.05;;;110.65;;
51296;SDS011;37380;45.186;9.792;2023-09-12T02:34:06;116.50;;;104.60;;
51296;SDS011;37380;45.186;9.792;2023-09-12T02:37:01;117.35;;;105.03;;
51296;SDS011;37380;45.186;9.792;2023-09-12T02:39:28;111.50;;;100.20;;
51296;SDS011;37380;45.186;9.792;2023-09-12T02:41:55;121.85;;;109.60;;
51296;SDS011;37380;45.186;9.792;2023-09-12T02:44:22;120.82;;;108.28;;
51296;SDS011;37380;45.186;9.792;2023-09-12T02:46:50;125.85;;;112.30;;
51296;SDS011;37380;45.186;9.792;2023-09-12T02:49:17;122.43;;;109.25;;
51296;SDS011;37380;45.186;9.792;2023-09-12T02:51:45;118.60;;;106.43;;
51296;SDS011;37380;45.186;9.792;2023-09-12T02:54:12;121.95;;;109.28;;
51296;SDS011;37380;45.186;9.792;2023-09-12T02:56:39;124.03;;;110.45;;
51296;SDS011;37380;45.186;9.792;2023-09-12T02:59:06;129.02;;;104.82;;
51296;SDS011;37380;45.186;9.792;2023-09-12T03:01:40;118.97;;;96.72;;
51296;SDS011;37380;45.186;9.792;2023-09-12T03:04:41;104.32;;;93.53;;
51296;SDS011;37380;45.186;9.792;2023-09-12T03:07:20;110.70;;;99.35;;
51296;SDS011;37380;45.186;9.792;2023-09-12T03:09:48;116.50;;;103.05;;
51296;SDS011;37380;45.186;9.792;2023-09-12T03:12:23;111.63;;;99.90;;
51296;SDS011;37380;45.186;9.792;2023-09-12T03:15:17;113.53;;;101.90;;
51296;SDS011;37380;45.186;9.792;2023-09-12T03:17:44;114.20;;;102.32;;
51296;SDS011;37380;45.186;9.792;2023-09-12T03:20:12;107.38;;;96.15;;
51296;SDS011;37380;45.186;9.792;2023-09-12T03:22:39;107.72;;;95.93;;
51296;SDS011;37380;45.186;9.792;2023-09-12T03:25:06;111.15;;;100.03;;
51296;SDS011;37380;45.186;9.792;2023-09-12T03:27:34;106.28;;;95.25;;
51296;SDS011;37380;45.186;9.792;2023-09-12T03:30:01;104.75;;;93.95;;
51296;SDS011;37380;45.186;9.792;2023-09-12T03:32:30;108.05;;;91.28;;
51296;SDS011;37380;45.186;9.792;2023-09-12T03:35:04;107.55;;;96.15;;
51296;SDS011;37380;45.186;9.792;2023-09-12T03:37:58;100.28;;;89.78;;
51296;SDS011;37380;45.186;9.792;2023-09-12T03:40:28;105.03;;;93.15;;
51296;SDS011;37380;45.186;9.792;2023-09-12T03:42:56;111.28;;;95.72;;
51296;SDS011;37380;45.186;9.792;2023-09-12T03:45:24;111.15;;;95.18;;
51296;SDS011;37380;45.186;9.792;2023-09-12T03:47:52;128.27;;;96.18;;
51296;SDS011;37380;45.186;9.792;2023-09-12T03:50:19;105.80;;;94.68;;
51296;SDS011;37380;45.186;9.792;2023-09-12T03:52:46;108.25;;;95.90;;
51296;SDS011;37380;45.186;9.792;2023-09-12T03:55:13;107.03;;;94.45;;
51296;SDS011;37380;45.186;9.792;2023-09-12T03:57:41;105.97;;;94.22;;
51296;SDS011;37380;45.186;9.792;2023-09-12T04:00:08;103.47;;;92.20;;
51296;SDS011;37380;45.186;9.792;2023-09-12T04:02:45;99.63;;;88.65;;
51296;SDS011;37380;45.186;9.792;2023-09-12T04:05:14;106.68;;;95.60;;
51296;SDS011;37380;45.186;9.792;2023-09-12T04:07:41;100.57;;;90.10;;
51296;SDS011;37380;45.186;9.792;2023-09-12T04:10:08;110.53;;;98.35;;
51296;SDS011;37380;45.186;9.792;2023-09-12T04:12:42;109.50;;;97.88;;
51296;SDS011;37380;45.186;9.792;2023-09-12T04:15:43;109.55;;;97.60;;
51296;SDS011;37380;45.186;9.792;2023-09-12T04:18:44;110.97;;;99.47;;
51296;SDS011;37380;45.186;9.792;2023-09-12T04:21:14;110.00;;;98.43;;
51296;SDS011;37380;45.186;9.792;2023-09-12T04:23:42;115.40;;;103.20;;
51296;SDS011;37380;45.186;9.792;2023-09-12T04:26:09;117.93;;;105.25;;
51296;SDS011;37380;45.186;9.792;2023-09-12T04:28:36;120.75;;;105.90;;
51296;SDS011;37380;45.186;9.792;2023-09-12T04:31:03;118.63;;;104.07;;
51296;SDS011;37380;45.186;9.792;2023-09-12T04:33:37;119.20;;;106.45;;
51296;SDS011;37380;45.186;9.792;2023-09-12T04:36:38;121.78;;;109.28;;
51296;SDS011;37380;45.186;9.792;2023-09-12T04:39:16;118.70;;;106.57;;
51296;SDS011;37380;45.186;9.792;2023-09-12T04:41:43;115.57;;;103.22;;
51296;SDS011;37380;45.186;9.792;2023-09-12T04:44:10;124.15;;;110.15;;
51296;SDS011;37380;45.186;9.792;2023-09-12T04:46:38;126.10;;;112.68;;
51296;SDS011;37380;45.186;9.792;2023-09-12T04:49:07;148.30;;;114.15;;
51296;SDS011;37380;45.186;9.792;2023-09-12T04:51:34;124.72;;;111.25;;
51296;SDS011;37380;45.186;9.792;2023-09-12T04:54:01;125.40;;;111.90;;
51296;SDS011;37380;45.186;9.792;2023-09-12T04:56:29;128.23;;;114.13;;
51296;SDS011;37380;45.186;9.792;2023-09-12T04:58:56;125.10;;;112.13;;
51296;SDS011;37380;45.186;9.792;2023-09-12T05:01:29;123.75;;;109.88;;
51296;SDS011;37380;45.186;9.792;2023-09-12T05:04:30;119.55;;;106.50;;
51296;SDS011;37380;45.186;9.792;2023-09-12T05:07:18;121.97;;;108.68;;
51296;SDS011;37380;45.186;9.792;2023-09-12T05:09:45;128.75;;;111.25;;
51296;SDS011;37380;45.186;9.792;2023-09-12T05:12:19;122.95;;;110.05;;
51296;SDS011;37380;45.186;9.792;2023-09-12T05:15:13;125.38;;;112.03;;
51296;SDS011;37380;45.186;9.792;2023-09-12T05:17:40;124.50;;;111.75;;
51296;SDS011;37380;45.186;9.792;2023-09-12T05:20:07;126.85;;;113.10;;
51296;SDS011;37380;45.186;9.792;2023-09-12T05:22:35;130.57;;;111.63;;
51296;SDS011;37380;45.186;9.792;2023-09-12T05:25:02;122.78;;;109.80;;
51296;SDS011;37380;45.186;9.792;2023-09-12T05:27:29;128.50;;;115.65;;
51296;SDS011;37380;45.186;9.792;2023-09-12T05:29:57;122.30;;;109.15;;
51296;SDS011;37380;45.186;9.792;2023-09-12T05:32:24;122.35;;;109.15;;
51296;SDS011;37380;45.186;9.792;2023-09-12T05:34:58;109.38;;;98.22;;
51296;SDS011;37380;45.186;9.792;2023-09-12T05:38:01;118.55;;;101.80;;
51296;SDS011;37380;45.186;9.792;2023-09-12T05:40:29;106.20;;;94.97;;
51296;SDS011;37380;45.186;9.792;2023-09-12T05:42:56;108.18;;;96.55;;
51296;SDS011;37380;45.186;9.792;2023-09-12T05:45:23;111.57;;;99.30;;
51296;SDS011;37380;45.186;9.792;2023-09-12T05:47:50;111.05;;;95.97;;
51296;SDS011;37380;45.186;9.792;2023-09-12T05:50:18;112.60;;;94.65;;
51296;SDS011;37380;45.186;9.792;2023-09-12T05:52:45;114.72;;;92.82;;
51296;SDS011;37380;45.186;9.792;2023-09-12T05:55:13;127.25;;;100.45;;
51296;SDS011;37380;45.186;9.792;2023-09-12T05:57:40;110.75;;;98.72;;
51296;SDS011;37380;45.186;9.792;2023-09-12T06:00:08;115.80;;;98.60;;
51296;SDS011;37380;45.186;9.792;2023-09-12T06:02:39;129.02;;;99.90;;
51296;SDS011;37380;45.186;9.792;2023-09-12T06:05:08;112.70;;;101.15;;
51296;SDS011;37380;45.186;9.792;2023-09-12T06:07:35;113.07;;;101.38;;
51296;SDS011;37380;45.186;9.792;2023-09-12T06:10:05;130.23;;;101.05;;
51296;SDS011;37380;45.186;9.792;2023-09-12T06:12:38;114.40;;;102.55;;
51296;SDS011;37380;45.186;9.792;2023-09-12T06:15:39;111.80;;;99.30;;
51296;SDS011;37380;45.186;9.792;2023-09-12T06:18:41;113.53;;;101.60;;
51296;SDS011;37380;45.186;9.792;2023-09-12T06:21:16;123.20;;;98.15;;
51296;SDS011;37380;45.186;9.792;2023-09-12T06:23:43;115.50;;;97.72;;
51296;SDS011;37380;45.186;9.792;2023-09-12T06:26:10;119.68;;;100.60;;
51296;SDS011;37380;45.186;9.792;2023-09-12T06:28:37;109.97;;;98.35;;
51296;SDS011;37380;45.186;9.792;2023-09-12T06:31:07;112.95;;;98.40;;
51296;SDS011;37380;45.186;9.792;2023-09-12T06:33:37;110.05;;;97.82;;
51296;SDS011;37380;45.186;9.792;2023-09-12T06:36:04;119.90;;;102.07;;
51296;SDS011;37380;45.186;9.792;2023-09-12T06:38:32;114.40;;;100.38;;
51296;SDS011;37380;45.186;9.792;2023-09-12T06:40:59;114.30;;;102.45;;
51296;SDS011;37380;45.186;9.792;2023-09-12T06:43:26;113.60;;;101.22;;
51296;SDS011;37380;45.186;9.792;2023-09-12T06:46:00;118.70;;;105.75;;
51296;SDS011;37380;45.186;9.792;2023-09-12T06:48:54;120.55;;;107.47;;
51296;SDS011;37380;45.186;9.792;2023-09-12T06:51:23;114.28;;;101.97;;
51296;SDS011;37380;45.186;9.792;2023-09-12T06:53:58;111.05;;;98.28;;
51296;SDS011;37380;45.186;9.792;2023-09-12T06:56:25;116.68;;;104.43;;
51296;SDS011;37380;45.186;9.792;2023-09-12T06:58:52;123.85;;;108.88;;
51296;SDS011;37380;45.186;9.792;2023-09-12T07:01:26;123.50;;;110.38;;
51296;SDS011;37380;45.186;9.792;2023-09-12T07:04:27;129.85;;;116.47;;
51296;SDS011;37380;45.186;9.792;2023-09-12T07:07:18;125.40;;;112.25;;
51296;SDS011;37380;45.186;9.792;2023-09-12T07:09:47;128.02;;;115.22;;
51296;SDS011;37380;45.186;9.792;2023-09-12T07:12:20;128.73;;;113.20;;
51296;SDS011;37380;45.186;9.792;2023-09-12T07:15:22;128.18;;;114.28;;
51296;SDS011;37380;45.186;9.792;2023-09-12T07:18:23;125.68;;;112.30;;
51296;SDS011;37380;45.186;9.792;2023-09-12T07:21:19;127.40;;;114.28;;
51296;SDS011;37380;45.186;9.792;2023-09-12T07:23:47;120.70;;;108.03;;
51296;SDS011;37380;45.186;9.792;2023-09-12T07:26:14;120.30;;;108.15;;
51296;SDS011;37380;45.186;9.792;2023-09-12T07:28:42;123.32;;;109.90;;
51296;SDS011;37380;45.186;9.792;2023-09-12T07:31:09;129.13;;;111.38;;
51296;SDS011;37380;45.186;9.792;2023-09-12T07:33:36;119.47;;;107.72;;
51296;SDS011;37380;45.186;9.792;2023-09-12T07:36:03;121.00;;;108.15;;
51296;SDS011;37380;45.186;9.792;2023-09-12T07:38:31;123.97;;;106.93;;
51296;SDS011;37380;45.186;9.792;2023-09-12T07:40:58;123.40;;;110.45;;
51296;SDS011;37380;45.186;9.792;2023-09-12T07:43:27;121.43;;;109.05;;
51296;SDS011;37380;45.186;9.792;2023-09-12T07:46:00;121.80;;;109.22;;
51296;SDS011;37380;45.186;9.792;2023-09-12T07:49:01;128.63;;;108.80;;
51296;SDS011;37380;45.186;9.792;2023-09-12T07:52:02;123.05;;;110.47;;
51296;SDS011;37380;45.186;9.792;2023-09-12T07:55:00;123.50;;;110.53;;
51296;SDS011;37380;45.186;9.792;2023-09-12T07:57:28;116.97;;;105.00;;
51296;SDS011;37380;45.186;9.792;2023-09-12T07:59:56;121.88;;;109.35;;
51296;SDS011;37380;45.186;9.792;2023-09-12T08:02:23;116.15;;;103.15;;
51296;SDS011;37380;45.186;9.792;2023-09-12T08:04:50;120.60;;;105.18;;
51296;SDS011;37380;45.186;9.792;2023-09-12T08:07:18;119.18;;;105.95;;
51296;SDS011;37380;45.186;9.792;2023-09-12T08:09:52;122.63;;;106.25;;
51296;SDS011;37380;45.186;9.792;2023-09-12T08:12:27;117.50;;;104.82;;
51296;SDS011;37380;45.186;9.792;2023-09-12T08:15:25;135.30;;;103.47;;
51296;SDS011;37380;45.186;9.792;2023-09-12T08:17:53;121.00;;;102.00;;
51296;SDS011;37380;45.186;9.792;2023-09-12T08:20:21;107.72;;;96.57;;
51296;SDS011;37380;45.186;9.792;2023-09-12T08:22:55;104.65;;;93.32;;
51296;SDS011;37380;45.186;9.792;2023-09-12T08:25:56;98.72;;;88.45;;
51296;SDS011;37380;45.186;9.792;2023-09-12T08:28:39;100.18;;;89.45;;
51296;SDS011;37380;45.186;9.792;2023-09-12T08:31:07;95.00;;;85.07;;
51296;SDS011;37380;45.186;9.792;2023-09-12T08:33:34;101.97;;;87.63;;
51296;SDS011;37380;45.186;9.792;2023-09-12T08:36:01;91.22;;;80.95;;
51296;SDS011;37380;45.186;9.792;2023-09-12T08:38:29;95.13;;;76.47;;
51296;SDS011;37380;45.186;9.792;2023-09-12T08:40:56;84.95;;;76.28;;
51296;SDS011;37380;45.186;9.792;2023-09-12T08:43:23;95.22;;;81.80;;
51296;SDS011;37380;45.186;9.792;2023-09-12T08:45:50;90.53;;;80.78;;
51296;SDS011;37380;45.186;9.792;2023-09-12T08:48:18;95.80;;;77.80;;
51296;SDS011;37380;45.186;9.792;2023-09-12T08:50:50;91.03;;;74.15;;
51296;SDS011;37380;45.186;9.792;2023-09-12T08:53:19;91.53;;;78.15;;
51296;SDS011;37380;45.186;9.792;2023-09-12T08:55:49;85.93;;;76.70;;
51296;SDS011;37380;45.186;9.792;2023-09-12T08:58:18;85.68;;;76.10;;
51296;SDS011;37380;45.186;9.792;2023-09-12T09:00:47;86.03;;;76.68;;
51296;SDS011;37380;45.186;9.792;2023-09-12T09:03:14;86.32;;;76.80;;
51296;SDS011;37380;45.186;9.792;2023-09-12T09:05:42;77.90;;;69.78;;
51296;SDS011;37380;45.186;9.792;2023-09-12T09:08:10;73.75;;;65.68;;
51296;SDS011;37380;45.186;9.792;2023-09-12T09:10:59;75.20;;;65.88;;
51296;SDS011;37380;45.186;9.792;2023-09-12T09:14:03;76.97;;;66.97;;
51296;SDS011;37380;45.186;9.792;2023-09-12T09:17:04;74.47;;;66.28;;
51296;SDS011;37380;45.186;9.792;2023-09-12T09:20:28;73.85;;;59.50;;
51296;SDS011;37380;45.186;9.792;2023-09-12T09:25:36;66.53;;;58.83;;
51296;SDS011;37380;45.186;9.792;2023-09-12T09:28:19;81.00;;;60.60;;
51296;SDS011;37380;45.186;9.792;2023-09-12T09:30:48;68.72;;;57.60;;
51296;SDS011;37380;45.186;9.792;2023-09-12T09:33:40;74.95;;;54.25;;
51296;SDS011;37380;45.186;9.792;2023-09-12T09:36:42;63.63;;;49.17;;
51296;SDS011;37380;45.186;9.792;2023-09-12T09:39:10;53.92;;;44.75;;
51296;SDS011;37380;45.186;9.792;2023-09-12T09:41:39;63.13;;;45.15;;
51296;SDS011;37380;45.186;9.792;2023-09-12T09:44:07;64.93;;;46.83;;
51296;SDS011;37380;45.186;9.792;2023-09-12T09:46:36;55.83;;;43.20;;
51296;SDS011;37380;45.186;9.792;2023-09-12T09:49:04;50.65;;;45.15;;
51296;SDS011;37380;45.186;9.792;2023-09-12T09:51:33;65.78;;;49.35;;
51296;SDS011;37380;45.186;9.792;2023-09-12T09:54:08;60.05;;;47.67;;
51296;SDS011;37380;45.186;9.792;2023-09-12T09:56:46;54.15;;;48.60;;
51296;SDS011;37380;45.186;9.792;2023-09-12T09:59:15;59.95;;;51.28;;
51296;SDS011;37380;45.186;9.792;2023-09-12T10:01:43;59.88;;;51.97;;
51296;SDS011;37380;45.186;9.792;2023-09-12T10:04:12;64.70;;;52.13;;
51296;SDS011;37380;45.186;9.792;2023-09-12T10:06:45;56.97;;;45.95;;
51296;SDS011;37380;45.186;9.792;2023-09-12T10:09:40;60.72;;;48.85;;
51296;SDS011;37380;45.186;9.792;2023-09-12T10:12:15;65.95;;;55.47;;
51296;SDS011;37380;45.186;9.792;2023-09-12T10:15:09;65.05;;;55.22;;
51296;SDS011;37380;45.186;9.792;2023-09-12T10:17:41;71.30;;;59.72;;
51296;SDS011;37380;45.186;9.792;2023-09-12T10:20:17;71.85;;;57.33;;
51296;SDS011;37380;45.186;9.792;2023-09-12T10:23:03;68.88;;;56.75;;
51296;SDS011;37380;45.186;9.792;2023-09-12T10:25:37;70.38;;;53.30;;
51296;SDS011;37380;45.186;9.792;2023-09-12T10:28:05;68.50;;;51.22;;
51296;SDS011;37380;45.186;9.792;2023-09-12T10:30:35;61.28;;;53.97;;
51296;SDS011;37380;45.186;9.792;2023-09-12T10:33:09;58.53;;;50.08;;
51296;SDS011;37380;45.186;9.792;2023-09-12T10:36:09;67.55;;;52.95;;
51296;SDS011;37380;45.186;9.792;2023-09-12T10:38:39;62.67;;;52.53;;
51296;SDS011;37380;45.186;9.792;2023-09-12T10:41:11;58.05;;;48.75;;
51296;SDS011;37380;45.186;9.792;2023-09-12T10:43:47;56.65;;;47.53;;
51296;SDS011;37380;45.186;9.792;2023-09-12T10:46:49;52.72;;;41.78;;
51296;SDS011;37380;45.186;9.792;2023-09-12T10:49:45;41.20;;;36.88;;
51296;SDS011;37380;45.186;9.792;2023-09-12T10:52:31;42.00;;;36.90;;
51296;SDS011;37380;45.186;9.792;2023-09-12T10:54:58;37.92;;;33.92;;
51296;SDS011;37380;45.186;9.792;2023-09-12T10:57:32;41.05;;;29.08;;
51296;SDS011;37380;45.186;9.792;2023-09-12T11:00:29;37.85;;;33.03;;
51296;SDS011;37380;45.186;9.792;2023-09-12T11:03:35;38.88;;;33.70;;
51296;SDS011;37380;45.186;9.792;2023-09-12T11:05:56;42.72;;;32.38;;
51296;SDS011;37380;45.186;9.792;2023-09-12T11:08:23;37.83;;;32.17;;
51296;SDS011;37380;45.186;9.792;2023-09-12T11:14:20;37.63;;;31.27;;
51296;SDS011;37380;45.186;9.792;2023-09-12T11:17:22;38.78;;;32.92;;
51296;SDS011;37380;45.186;9.792;2023-09-12T11:19:49;41.40;;;31.98;;
51296;SDS011;37380;45.186;9.792;2023-09-12T11:22:25;39.53;;;32.47;;
51296;SDS011;37380;45.186;9.792;2023-09-12T11:24:54;36.30;;;32.58;;
51296;SDS011;37380;45.186;9.792;2023-09-12T11:27:30;41.55;;;28.20;;
51296;SDS011;37380;45.186;9.792;2023-09-12T11:30:05;37.00;;;29.65;;
51296;SDS011;37380;45.186;9.792;2023-09-12T11:32:35;38.33;;;28.08;;
51296;SDS011;37380;45.186;9.792;2023-09-12T11:35:08;29.98;;;25.75;;
51296;SDS011;37380;45.186;9.792;2023-09-12T11:37:35;27.90;;;25.10;;
51296;SDS011;37380;45.186;9.792;2023-09-12T11:43:19;31.50;;;24.48;;
51296;SDS011;37380;45.186;9.792;2023-09-12T11:45:51;23.02;;;20.83;;
51296;SDS011;37380;45.186;9.792;2023-09-12T11:48:19;29.88;;;19.13;;
51296;SDS011;37380;45.186;9.792;2023-09-12T11:50:51;27.20;;;20.20;;
51296;SDS011;37380;45.186;9.792;2023-09-12T11:53:21;26.13;;;21.45;;
51296;SDS011;37380;45.186;9.792;2023-09-12T11:55:53;22.33;;;19.98;;
51296;SDS011;37380;45.186;9.792;2023-09-12T11:58:36;25.95;;;22.67;;
51296;SDS011;37380;45.186;9.792;2023-09-12T12:01:04;22.60;;;20.20;;
51296;SDS011;37380;45.186;9.792;2023-09-12T12:03:31;29.15;;;22.95;;
51296;SDS011;37380;45.186;9.792;2023-09-12T12:06:05;23.95;;;21.27;;
51296;SDS011;37380;45.186;9.792;2023-09-12T12:08:59;33.55;;;24.88;;
51296;SDS011;37380;45.186;9.792;2023-09-12T12:11:34;34.33;;;23.98;;
51296;SDS011;37380;45.186;9.792;2023-09-12T12:14:34;38.95;;;32.42;;
51296;SDS011;37380;45.186;9.792;2023-09-12T12:17:07;31.15;;;24.13;;
51296;SDS011;37380;45.186;9.792;2023-09-12T12:19:35;28.70;;;21.67;;
51296;SDS011;37380;45.186;9.792;2023-09-12T12:22:04;29.15;;;24.63;;
51296;SDS011;37380;45.186;9.792;2023-09-12T12:24:37;25.08;;;22.40;;
51296;SDS011;37380;45.186;9.792;2023-09-12T12:27:14;33.55;;;22.45;;
51296;SDS011;37380;45.186;9.792;2023-09-12T12:29:42;22.23;;;19.63;;
51296;SDS011;37380;45.186;9.792;2023-09-12T12:32:17;24.75;;;21.27;;
51296;SDS011;37380;45.186;9.792;2023-09-12T12:35:19;23.17;;;20.23;;
51296;SDS011;37380;45.186;9.792;2023-09-12T12:38:39;29.92;;;20.52;;
51296;SDS011;37380;45.186;9.792;2023-09-12T12:41:36;29.73;;;20.58;;
51296;SDS011;37380;45.186;9.792;2023-09-12T12:44:17;42.35;;;24.15;;
51296;SDS011;37380;45.186;9.792;2023-09-12T12:46:52;29.02;;;23.58;;
51296;SDS011;37380;45.186;9.792;2023-09-12T12:49:55;27.27;;;24.67;;
51296;SDS011;37380;45.186;9.792;2023-09-12T12:52:31;29.48;;;23.58;;
51296;SDS011;37380;45.186;9.792;2023-09-12T12:58:12;42.03;;;22.52;;
51296;SDS011;37380;45.186;9.792;2023-09-12T13:01:14;28.30;;;22.80;;
51296;SDS011;37380;45.186;9.792;2023-09-12T13:04:08;26.30;;;19.40;;
51296;SDS011;37380;45.186;9.792;2023-09-12T13:06:36;21.55;;;19.27;;
51296;SDS011;37380;45.186;9.792;2023-09-12T13:09:05;20.77;;;18.20;;
51296;SDS011;37380;45.186;9.792;2023-09-12T13:11:39;19.00;;;16.85;;
51296;SDS011;37380;45.186;9.792;2023-09-12T13:14:34;23.88;;;19.50;;
51296;SDS011;37380;45.186;9.792;2023-09-12T13:17:01;19.75;;;17.65;;
51296;SDS011;37380;45.186;9.792;2023-09-12T13:19:31;21.23;;;19.20;;
51296;SDS011;37380;45.186;9.792;2023-09-12T13:21:58;27.33;;;20.08;;
51296;SDS011;37380;45.186;9.792;2023-09-12T13:24:26;22.05;;;18.85;;
51296;SDS011;37380;45.186;9.792;2023-09-12T13:27:00;27.13;;;20.75;;
51296;SDS011;37380;45.186;9.792;2023-09-12T13:29:55;22.50;;;18.75;;
51296;SDS011;37380;45.186;9.792;2023-09-12T13:32:26;19.90;;;16.98;;
51296;SDS011;37380;45.186;9.792;2023-09-12T13:34:53;20.58;;;14.18;;
51296;SDS011;37380;45.186;9.792;2023-09-12T13:37:21;21.40;;;18.10;;
51296;SDS011;37380;45.186;9.792;2023-09-12T13:39:49;20.88;;;18.52;;
51296;SDS011;37380;45.186;9.792;2023-09-12T13:42:16;28.35;;;20.83;;
51296;SDS011;37380;45.186;9.792;2023-09-12T13:44:48;28.63;;;19.83;;
51296;SDS011;37380;45.186;9.792;2023-09-12T13:47:21;40.88;;;21.50;;
51296;SDS011;37380;45.186;9.792;2023-09-12T13:50:17;16.20;;;10.32;;
51296;SDS011;37380;45.186;9.792;2023-09-12T13:52:45;20.20;;;9.95;;
51296;SDS011;37380;45.186;9.792;2023-09-12T13:55:19;14.35;;;11.18;;
51296;SDS011;37380;45.186;9.792;2023-09-12T13:58:25;16.02;;;10.85;;
51296;SDS011;37380;45.186;9.792;2023-09-12T14:01:34;13.93;;;12.45;;
51296;SDS011;37380;45.186;9.792;2023-09-12T14:04:03;16.88;;;11.70;;
51296;SDS011;37380;45.186;9.792;2023-09-12T14:06:32;18.00;;;11.15;;
51296;SDS011;37380;45.186;9.792;2023-09-12T14:09:01;26.58;;;13.45;;
51296;SDS011;37380;45.186;9.792;2023-09-12T14:11:35;14.80;;;11.63;;
51296;SDS011;37380;45.186;9.792;2023-09-12T14:14:34;20.02;;;13.65;;
51296;SDS011;37380;45.186;9.792;2023-09-12T14:17:01;13.32;;;11.93;;
51296;SDS011;37380;45.186;9.792;2023-09-12T14:19:30;16.25;;;13.27;;
51296;SDS011;37380;45.186;9.792;2023-09-12T14:21:59;15.25;;;12.10;;
51296;SDS011;37380;45.186;9.792;2023-09-12T14:24:27;13.32;;;12.15;;
51296;SDS011;37380;45.186;9.792;2023-09-12T14:26:55;15.40;;;10.23;;
51296;SDS011;37380;45.186;9.792;2023-09-12T14:29:23;11.30;;;10.20;;
51296;SDS011;37380;45.186;9.792;2023-09-12T14:31:54;14.15;;;8.98;;
51296;SDS011;37380;45.186;9.792;2023-09-12T14:34:25;15.13;;;7.75;;
51296;SDS011;37380;45.186;9.792;2023-09-12T14:37:02;12.88;;;7.72;;
51296;SDS011;37380;45.186;9.792;2023-09-12T14:40:04;17.50;;;8.57;;
51296;SDS011;37380;45.186;9.792;2023-09-12T14:43:01;14.77;;;8.13;;
51296;SDS011;37380;45.186;9.792;2023-09-12T14:45:55;15.30;;;8.68;;
51296;SDS011;37380;45.186;9.792;2023-09-12T14:48:23;20.67;;;9.27;;
51296;SDS011;37380;45.186;9.792;2023-09-12T14:50:50;14.32;;;8.63;;
51296;SDS011;37380;45.186;9.792;2023-09-12T14:53:19;12.60;;;8.60;;
51296;SDS011;37380;45.186;9.792;2023-09-12T14:55:53;27.65;;;8.23;;
51296;SDS011;37380;45.186;9.792;2023-09-12T14:58:54;8.95;;;8.05;;
51296;SDS011;37380;45.186;9.792;2023-09-12T15:01:55;15.85;;;8.95;;
51296;SDS011;37380;45.186;9.792;2023-09-12T15:04:50;10.30;;;8.70;;
51296;SDS011;37380;45.186;9.792;2023-09-12T15:07:17;21.50;;;10.15;;
51296;SDS011;37380;45.186;9.792;2023-09-12T15:09:45;16.58;;;9.60;;
51296;SDS011;37380;45.186;9.792;2023-09-12T15:12:19;19.00;;;8.98;;
51296;SDS011;37380;45.186;9.792;2023-09-12T15:15:15;10.25;;;9.15;;